createdAt,value
2023-04-03T00:00:13.657Z,21.5
2023-04-03T00:01:15.455Z,21.5
2023-04-03T00:02:17.265Z,21.5
2023-04-03T00:03:19.481Z,21.5
2023-04-03T00:04:21.794Z,21.4
2023-04-03T00:05:23.982Z,21.4
2023-04-03T00:06:25.939Z,21.4
2023-04-03T00:07:27.788Z,21.4
2023-04-03T00:08:29.656Z,21.4
2023-04-03T00:09:31.496Z,21.4
2023-04-03T00:10:33.441Z,21.4
2023-04-03T00:11:35.362Z,21.4
2023-04-03T00:12:37.264Z,21.4
2023-04-03T00:13:39.179Z,21.4
2023-04-03T00:14:41.039Z,21.4
2023-04-03T00:15:42.894Z,21.4
2023-04-03T00:16:44.812Z,21.4
2023-04-03T00:17:46.851Z,21.4
2023-04-03T00:18:48.952Z,21.4
2023-04-03T00:19:50.815Z,21.4
2023-04-03T00:20:52.667Z,21.4
2023-04-03T00:21:54.519Z,21.4
2023-04-03T00:22:56.585Z,21.4
2023-04-03T00:23:58.441Z,21.4
2023-04-03T00:25:00.211Z,21.4
2023-04-03T00:26:02.256Z,21.4
2023-04-03T00:27:04.160Z,21.4
2023-04-03T00:28:06.033Z,21.4
2023-04-03T00:29:07.941Z,21.3
2023-04-03T00:30:09.825Z,21.3
2023-04-03T00:31:11.723Z,21.3
2023-04-03T00:32:13.829Z,21.3
2023-04-03T00:33:15.712Z,21.3
2023-04-03T00:34:17.628Z,21.3
2023-04-03T00:35:19.469Z,21.3
2023-04-03T00:36:21.490Z,21.3
2023-04-03T00:37:23.659Z,21.3
2023-04-03T00:38:25.798Z,21.3
2023-04-03T00:39:28.175Z,21.3
2023-04-03T00:40:30.058Z,21.3
2023-04-03T00:41:31.929Z,21.3
2023-04-03T00:42:33.757Z,21.3
2023-04-03T00:43:37.936Z,21.3
2023-04-03T00:44:39.818Z,21.3
2023-04-03T00:45:41.659Z,21.3
2023-04-03T00:46:43.553Z,21.3
2023-04-03T00:47:45.799Z,21.3
2023-04-03T00:48:47.924Z,21.3
2023-04-03T00:49:49.682Z,21.3
2023-04-03T00:50:51.532Z,21.2
2023-04-03T00:51:53.273Z,21.2
2023-04-03T00:52:55.132Z,21.2
2023-04-03T00:53:57.092Z,21.2
2023-04-03T00:54:58.924Z,21.2
2023-04-03T00:56:00.737Z,21.2
2023-04-03T00:57:02.790Z,21.2
2023-04-03T00:58:04.752Z,21.2
2023-04-03T00:59:06.653Z,21.2
2023-04-03T01:00:08.489Z,21.2
2023-04-03T01:01:10.313Z,21.2
2023-04-03T01:02:12.258Z,21.2
2023-04-03T01:03:13.930Z,21.2
2023-04-03T01:04:15.915Z,21.2
2023-04-03T01:05:17.946Z,21.2
2023-04-03T01:06:19.846Z,21.2
2023-04-03T01:07:21.738Z,21.2
2023-04-03T01:08:23.590Z,21.2
2023-04-03T01:09:25.459Z,21.2
2023-04-03T01:10:27.189Z,21.2
2023-04-03T01:11:29.108Z,21.2
2023-04-03T01:12:31.035Z,21.2
2023-04-03T01:13:33.019Z,21.2
2023-04-03T01:14:34.906Z,21.2
2023-04-03T01:15:36.729Z,21.2
2023-04-03T01:16:38.600Z,21.2
2023-04-03T01:17:40.478Z,21.1
2023-04-03T01:18:42.606Z,21.1
2023-04-03T01:19:44.498Z,21.1
2023-04-03T01:20:46.311Z,21.1
2023-04-03T01:21:48.162Z,21.1
2023-04-03T01:22:49.899Z,21.1
2023-04-03T01:23:51.827Z,21.1
2023-04-03T01:24:53.610Z,21.1
2023-04-03T01:25:55.457Z,21.1
2023-04-03T01:26:57.400Z,21.1
2023-04-03T01:27:59.329Z,21.1
2023-04-03T01:29:01.175Z,21.1
2023-04-03T01:30:03.132Z,21.1
2023-04-03T01:31:05.038Z,21.1
2023-04-03T01:32:07.068Z,21.1
2023-04-03T01:33:08.924Z,21.1
2023-04-03T01:34:10.969Z,21.1
2023-04-03T01:35:12.785Z,21.1
2023-04-03T01:36:14.709Z,21.1
2023-04-03T01:37:16.720Z,21.1
2023-04-03T01:38:18.371Z,21.1
2023-04-03T01:39:20.226Z,21.1
2023-04-03T01:40:22.133Z,21.1
2023-04-03T01:41:24.091Z,21.1
2023-04-03T01:42:25.819Z,21.1
2023-04-03T01:43:27.756Z,21.1
2023-04-03T01:44:29.670Z,21
2023-04-03T01:45:31.554Z,21
2023-04-03T01:46:33.641Z,21
2023-04-03T01:47:35.556Z,21
2023-04-03T01:48:37.540Z,21
2023-04-03T01:49:39.528Z,21
2023-04-03T01:50:41.405Z,21
2023-04-03T01:51:43.317Z,21
2023-04-03T01:52:45.095Z,21
2023-04-03T01:53:46.934Z,21
2023-04-03T01:54:48.692Z,21
2023-04-03T01:55:50.548Z,21
2023-04-03T01:56:52.457Z,21
2023-04-03T01:57:54.347Z,21
2023-04-03T01:58:56.220Z,21
2023-04-03T01:59:58.144Z,21
2023-04-03T02:01:00.013Z,21
2023-04-03T02:02:02.121Z,21
2023-04-03T02:03:04.040Z,21
2023-04-03T02:04:06.175Z,21
2023-04-03T02:05:08.114Z,21
2023-04-03T02:06:10.946Z,21
2023-04-03T02:07:14.616Z,21
2023-04-03T02:08:16.430Z,21
2023-04-03T02:09:18.278Z,21
2023-04-03T02:10:20.119Z,20.9
2023-04-03T02:11:21.962Z,20.9
2023-04-03T02:12:23.828Z,20.9
2023-04-03T02:13:25.604Z,20.9
2023-04-03T02:14:27.553Z,20.9
2023-04-03T02:15:29.274Z,20.9
2023-04-03T02:16:31.317Z,20.9
2023-04-03T02:17:33.492Z,20.9
2023-04-03T02:18:35.324Z,20.9
2023-04-03T02:19:37.223Z,20.9
2023-04-03T02:20:39.517Z,20.9
2023-04-03T02:21:42.039Z,20.9
2023-04-03T02:22:43.672Z,20.9
2023-04-03T02:23:45.497Z,20.9
2023-04-03T02:24:47.350Z,20.9
2023-04-03T02:25:49.262Z,20.9
2023-04-03T02:26:51.202Z,20.9
2023-04-03T02:27:53.203Z,20.9
2023-04-03T02:28:55.126Z,20.9
2023-04-03T02:29:57.134Z,20.9
2023-04-03T02:30:59.025Z,20.9
2023-04-03T02:32:00.922Z,20.9
2023-04-03T02:33:02.801Z,20.9
2023-04-03T02:34:04.834Z,20.8
2023-04-03T02:35:06.609Z,20.8
2023-04-03T02:36:08.582Z,20.8
2023-04-03T02:37:10.509Z,20.8
2023-04-03T02:38:12.419Z,20.8
2023-04-03T02:39:14.301Z,20.8
2023-04-03T02:40:16.145Z,20.8
2023-04-03T02:41:18.081Z,20.8
2023-04-03T02:42:19.932Z,20.8
2023-04-03T02:43:21.821Z,20.8
2023-04-03T02:44:23.731Z,20.8
2023-04-03T02:45:25.610Z,20.8
2023-04-03T02:46:27.484Z,20.8
2023-04-03T02:47:29.479Z,20.8
2023-04-03T02:48:31.401Z,20.8
2023-04-03T02:49:33.295Z,20.8
2023-04-03T02:50:35.338Z,20.8
2023-04-03T02:51:38.299Z,20.8
2023-04-03T02:52:40.174Z,20.8
2023-04-03T02:53:42.191Z,20.8
2023-04-03T02:54:44.156Z,20.8
2023-04-03T02:55:46.021Z,20.8
2023-04-03T02:56:47.869Z,20.8
2023-04-03T02:57:49.820Z,20.8
2023-04-03T02:58:51.751Z,20.8
2023-04-03T02:59:53.632Z,20.8
2023-04-03T03:00:55.668Z,20.8
2023-04-03T03:01:57.617Z,20.8
2023-04-03T03:02:59.655Z,20.8
2023-04-03T03:04:01.678Z,20.8
2023-04-03T03:05:03.511Z,20.7
2023-04-03T03:06:05.746Z,20.7
2023-04-03T03:07:07.495Z,20.7
2023-04-03T03:08:09.374Z,20.7
2023-04-03T03:09:11.380Z,20.7
2023-04-03T03:10:13.262Z,20.7
2023-04-03T03:11:20.587Z,20.7
2023-04-03T03:12:22.496Z,20.7
2023-04-03T03:13:24.581Z,20.7
2023-04-03T03:14:26.556Z,20.7
2023-04-03T03:15:28.481Z,20.7
2023-04-03T03:16:30.399Z,20.7
2023-04-03T03:17:32.712Z,20.6
2023-04-03T03:18:34.725Z,20.4
2023-04-03T03:19:36.558Z,20.4
2023-04-03T03:20:38.595Z,20.4
2023-04-03T03:21:40.755Z,20.4
2023-04-03T03:22:42.627Z,20.3
2023-04-03T03:23:44.482Z,20.1
2023-04-03T03:24:46.144Z,19.8
2023-04-03T03:25:48.075Z,19.8
2023-04-03T03:26:49.879Z,19.7
2023-04-03T03:27:51.800Z,19.8
2023-04-03T03:28:53.768Z,19.7
2023-04-03T03:29:55.579Z,19.7
2023-04-03T03:30:57.470Z,19.7
2023-04-03T03:32:00.220Z,19.7
2023-04-03T03:33:02.060Z,19.8
2023-04-03T03:34:04.038Z,19.8
2023-04-03T03:35:05.748Z,19.6
2023-04-03T03:36:07.694Z,19.6
2023-04-03T03:37:09.850Z,19.5
2023-04-03T03:38:11.608Z,19.6
2023-04-03T03:39:13.463Z,19.7
2023-04-03T03:40:15.330Z,19.7
2023-04-03T03:41:19.924Z,19.8
2023-04-03T03:42:21.764Z,19.9
2023-04-03T03:43:23.713Z,19.9
2023-04-03T03:44:25.569Z,20
2023-04-03T03:45:27.325Z,19.9
2023-04-03T03:46:29.135Z,19.9
2023-04-03T03:47:31.516Z,20
2023-04-03T03:48:33.600Z,20.1
2023-04-03T03:49:35.328Z,20.1
2023-04-03T03:50:37.256Z,20.1
2023-04-03T03:51:39.188Z,20.1
2023-04-03T03:52:41.066Z,20.1
2023-04-03T03:53:42.931Z,19.9
2023-04-03T03:54:44.797Z,19.9
2023-04-03T03:55:46.999Z,19.9
2023-04-03T03:56:48.908Z,19.9
2023-04-03T03:57:51.030Z,20
2023-04-03T03:58:53.000Z,20
2023-04-03T03:59:54.878Z,20.1
2023-04-03T04:00:56.583Z,20.1
2023-04-03T04:01:58.609Z,20.1
2023-04-03T04:03:00.742Z,20.1
2023-04-03T04:04:02.958Z,20.2
2023-04-03T04:05:04.850Z,20.2
2023-04-03T04:06:06.782Z,20.2
2023-04-03T04:07:08.630Z,20.2
2023-04-03T04:08:10.547Z,20.2
2023-04-03T04:09:12.424Z,20.2
2023-04-03T04:10:14.297Z,20.2
2023-04-03T04:11:16.389Z,20.2
2023-04-03T04:12:18.287Z,20.2
2023-04-03T04:13:20.036Z,20.3
2023-04-03T04:14:21.876Z,20.4
2023-04-03T04:15:23.740Z,20.3
2023-04-03T04:16:25.679Z,20.4
2023-04-03T04:17:27.688Z,20.4
2023-04-03T04:18:29.832Z,20.4
2023-04-03T04:19:31.958Z,20.4
2023-04-03T04:20:33.812Z,20.4
2023-04-03T04:21:35.740Z,20.4
2023-04-03T04:22:37.635Z,20.5
2023-04-03T04:23:39.468Z,20.5
2023-04-03T04:24:41.309Z,20.6
2023-04-03T04:25:43.163Z,20.7
2023-04-03T04:26:45.077Z,20.8
2023-04-03T04:27:46.847Z,20.8
2023-04-03T04:28:48.708Z,20.8
2023-04-03T04:29:50.464Z,20.9
2023-04-03T04:30:52.263Z,20.9
2023-04-03T04:31:54.283Z,21
2023-04-03T04:32:56.119Z,21.1
2023-04-03T04:33:58.424Z,21.1
2023-04-03T04:35:00.296Z,21.1
2023-04-03T04:36:02.424Z,21.2
2023-04-03T04:37:04.657Z,21.2
2023-04-03T04:38:06.988Z,21.2
2023-04-03T04:39:08.881Z,21.3
2023-04-03T04:40:10.792Z,21.3
2023-04-03T04:41:12.571Z,21.3
2023-04-03T04:42:16.694Z,21.4
2023-04-03T04:43:19.635Z,21.4
2023-04-03T04:44:21.580Z,21.5
2023-04-03T04:45:23.422Z,21.6
2023-04-03T04:46:25.323Z,21.6
2023-04-03T04:47:27.439Z,21.7
2023-04-03T04:48:30.744Z,21.7
2023-04-03T04:49:34.715Z,21.7
2023-04-03T04:50:36.578Z,21.7
2023-04-03T04:51:48.700Z,21.8
2023-04-03T04:52:54.191Z,21.8
2023-04-03T04:53:56.257Z,21.9
2023-04-03T04:54:58.277Z,21.9
2023-04-03T04:56:00.155Z,22
2023-04-03T04:57:02.065Z,22
2023-04-03T04:58:04.164Z,22
2023-04-03T04:59:06.086Z,22.1
2023-04-03T05:00:07.874Z,22.1
2023-04-03T05:01:09.719Z,22.2
2023-04-03T05:02:11.554Z,22.2
2023-04-03T05:03:13.401Z,22.2
2023-04-03T05:04:15.315Z,22.2
2023-04-03T05:05:17.555Z,22.3
2023-04-03T05:06:19.565Z,22.3
2023-04-03T05:07:21.516Z,22.3
2023-04-03T05:08:23.367Z,22.3
2023-04-03T05:09:25.228Z,22.3
2023-04-03T05:10:27.143Z,22.4
2023-04-03T05:11:29.022Z,22.4
2023-04-03T05:12:30.854Z,22.4
2023-04-03T05:13:32.722Z,22.4
2023-04-03T05:14:34.547Z,22.5
2023-04-03T05:15:36.754Z,22.5
2023-04-03T05:16:39.911Z,22.6
2023-04-03T05:17:41.787Z,22.6
2023-04-03T05:18:43.931Z,22.6
2023-04-03T05:19:45.887Z,22.6
2023-04-03T05:20:48.309Z,22.6
2023-04-03T05:21:50.390Z,22.7
2023-04-03T05:22:52.247Z,22.7
2023-04-03T05:23:54.105Z,22.7
2023-04-03T05:24:55.997Z,22.7
2023-04-03T05:25:57.970Z,22.8
2023-04-03T05:26:59.849Z,22.8
2023-04-03T05:28:01.628Z,22.8
2023-04-03T05:29:03.284Z,22.9
2023-04-03T05:30:05.172Z,22.9
2023-04-03T05:31:07.250Z,22.9
2023-04-03T05:32:09.328Z,23
2023-04-03T05:33:11.223Z,23.1
2023-04-03T05:34:13.251Z,23.1
2023-04-03T05:35:15.195Z,23.1
2023-04-03T05:36:17.691Z,23.1
2023-04-03T05:37:20.439Z,23.2
2023-04-03T05:38:22.555Z,23.2
2023-04-03T05:39:24.809Z,23.2
2023-04-03T05:40:26.758Z,23.2
2023-04-03T05:41:28.610Z,23.2
2023-04-03T05:42:30.515Z,23.2
2023-04-03T05:43:32.228Z,23.2
2023-04-03T05:44:34.057Z,23.2
2023-04-03T05:45:36.035Z,23.2
2023-04-03T05:46:37.875Z,23.2
2023-04-03T05:47:39.772Z,23.2
2023-04-03T05:48:41.817Z,23.3
2023-04-03T05:49:43.717Z,23.3
2023-04-03T05:50:45.433Z,23.4
2023-04-03T05:51:47.343Z,23.4
2023-04-03T05:52:49.070Z,23.4
2023-04-03T05:53:50.911Z,23.4
2023-04-03T05:54:52.672Z,23.4
2023-04-03T05:55:55.023Z,23.4
2023-04-03T05:56:56.966Z,23.4
2023-04-03T05:57:59.172Z,23.4
2023-04-03T05:59:00.894Z,23.4
2023-04-03T06:00:02.736Z,23.4
2023-04-03T06:01:04.502Z,23.4
2023-04-03T06:02:06.410Z,23.4
2023-04-03T06:03:08.440Z,23.5
2023-04-03T06:04:11.205Z,23.5
2023-04-03T06:05:13.423Z,23.5
2023-04-03T06:06:15.281Z,23.5
2023-04-03T06:07:17.205Z,23.6
2023-04-03T06:08:19.083Z,23.6
2023-04-03T06:09:20.816Z,23.6
2023-04-03T06:10:22.561Z,23.6
2023-04-03T06:11:24.498Z,23.6
2023-04-03T06:12:26.270Z,23.6
2023-04-03T06:13:28.119Z,23.7
2023-04-03T06:14:29.967Z,23.7
2023-04-03T06:15:31.740Z,23.7
2023-04-03T06:16:33.724Z,23.7
2023-04-03T06:17:39.438Z,23.8
2023-04-03T06:18:41.410Z,23.8
2023-04-03T06:19:43.419Z,23.9
2023-04-03T06:20:45.284Z,23.9
2023-04-03T06:21:47.259Z,24
2023-04-03T06:22:49.605Z,24
2023-04-03T06:23:51.532Z,24
2023-04-03T06:24:53.458Z,24
2023-04-03T06:25:55.345Z,24
2023-04-03T06:26:57.190Z,24.1
2023-04-03T06:27:58.988Z,24.2
2023-04-03T06:29:00.890Z,24.3
2023-04-03T06:30:02.820Z,24.3
2023-04-03T06:31:04.908Z,24.3
2023-04-03T06:32:06.956Z,24.4
2023-04-03T06:33:08.692Z,24.4
2023-04-03T06:34:10.661Z,24.4
2023-04-03T06:35:12.572Z,24.4
2023-04-03T06:36:14.445Z,24.4
2023-04-03T06:37:16.361Z,24.4
2023-04-03T06:38:18.283Z,24.4
2023-04-03T06:39:20.103Z,24.4
2023-04-03T06:40:22.354Z,24.5
2023-04-03T06:41:24.218Z,24.5
2023-04-03T06:42:25.971Z,24.5
2023-04-03T06:43:27.712Z,24.5
2023-04-03T06:44:29.486Z,24.6
2023-04-03T06:45:31.516Z,24.7
2023-04-03T06:46:33.384Z,24.7
2023-04-03T06:47:35.243Z,24.7
2023-04-03T06:48:37.150Z,24.8
2023-04-03T06:49:39.322Z,24.8
2023-04-03T06:50:41.360Z,24.8
2023-04-03T06:51:43.278Z,24.7
2023-04-03T06:52:45.118Z,24.7
2023-04-03T06:53:47.149Z,24.7
2023-04-03T06:54:48.915Z,24.8
2023-04-03T06:55:50.941Z,24.9
2023-04-03T06:56:52.779Z,25
2023-04-03T06:57:54.896Z,25
2023-04-03T06:58:56.795Z,24.9
2023-04-03T06:59:58.647Z,24.9
2023-04-03T07:01:00.494Z,24.9
2023-04-03T07:02:02.301Z,25
2023-04-03T07:03:07.208Z,25.1
2023-04-03T07:04:09.692Z,25.1
2023-04-03T07:05:11.690Z,25.1
2023-04-03T07:06:13.885Z,25.2
2023-04-03T07:07:15.684Z,25.1
2023-04-03T07:08:17.612Z,25.1
2023-04-03T07:09:19.521Z,25.1
2023-04-03T07:10:21.216Z,25.1
2023-04-03T07:11:22.979Z,25.2
2023-04-03T07:12:25.125Z,25.2
2023-04-03T07:13:26.945Z,25.2
2023-04-03T07:14:28.839Z,25.2
2023-04-03T07:15:30.651Z,25.3
2023-04-03T07:16:32.669Z,25.2
2023-04-03T07:17:34.820Z,25.2
2023-04-03T07:18:36.765Z,25.2
2023-04-03T07:19:38.504Z,25.2
2023-04-03T07:20:40.353Z,25.2
2023-04-03T07:21:42.387Z,25.3
2023-04-03T07:22:44.251Z,25.3
2023-04-03T07:23:46.150Z,25.4
2023-04-03T07:24:48.398Z,25.4
2023-04-03T07:25:50.336Z,25.4
2023-04-03T07:26:52.272Z,25.4
2023-04-03T07:27:54.121Z,25.5
2023-04-03T07:28:56.048Z,25.5
2023-04-03T07:29:57.971Z,25.4
2023-04-03T07:30:59.751Z,25.4
2023-04-03T07:32:01.899Z,25.4
2023-04-03T07:33:04.027Z,25.4
2023-04-03T07:34:06.176Z,25.4
2023-04-03T07:35:08.237Z,25.4
2023-04-03T07:36:10.244Z,25.4
2023-04-03T07:37:12.208Z,25.4
2023-04-03T07:38:14.050Z,25.4
2023-04-03T07:39:15.874Z,25.4
2023-04-03T07:40:19.010Z,25.4
2023-04-03T07:41:22.489Z,25.4
2023-04-03T07:42:24.379Z,25.4
2023-04-03T07:43:26.286Z,25.4
2023-04-03T07:44:28.174Z,25.4
2023-04-03T07:45:30.125Z,25.5
2023-04-03T07:46:32.145Z,25.6
2023-04-03T07:47:34.013Z,25.6
2023-04-03T07:48:35.859Z,25.6
2023-04-03T07:49:37.591Z,25.7
2023-04-03T07:50:39.434Z,25.7
2023-04-03T07:51:41.222Z,25.7
2023-04-03T07:52:43.041Z,25.7
2023-04-03T07:53:44.948Z,25.7
2023-04-03T07:54:46.838Z,25.7
2023-04-03T07:55:48.924Z,25.7
2023-04-03T07:56:50.771Z,25.7
2023-04-03T07:57:52.748Z,25.7
2023-04-03T07:58:54.608Z,25.8
2023-04-03T07:59:56.301Z,25.7
2023-04-03T08:00:58.348Z,25.7
2023-04-03T08:02:00.200Z,25.7
2023-04-03T08:03:02.103Z,25.7
2023-04-03T08:04:04.613Z,25.7
2023-04-03T08:05:06.910Z,25.8
2023-04-03T08:06:11.717Z,25.8
2023-04-03T08:07:30.552Z,25.8
2023-04-03T08:08:32.515Z,25.8
2023-04-03T08:09:34.341Z,25.8
2023-04-03T08:10:36.295Z,25.9
2023-04-03T08:11:38.343Z,25.9
2023-04-03T08:12:40.197Z,25.9
2023-04-03T08:13:42.085Z,26
2023-04-03T08:14:43.914Z,26
2023-04-03T08:15:45.752Z,26
2023-04-03T08:16:47.579Z,26.1
2023-04-03T08:17:49.858Z,26.1
2023-04-03T08:18:51.967Z,26.1
2023-04-03T08:19:53.767Z,26.1
2023-04-03T08:20:55.570Z,26.1
2023-04-03T08:21:57.542Z,26.1
2023-04-03T08:22:59.421Z,26
2023-04-03T08:24:01.246Z,26.1
2023-04-03T08:25:03.227Z,26.1
2023-04-03T08:26:05.076Z,26
2023-04-03T08:27:06.991Z,26
2023-04-03T08:28:08.852Z,26.1
2023-04-03T08:29:10.803Z,26.1
2023-04-03T08:30:12.876Z,26.1
2023-04-03T08:31:14.796Z,26.1
2023-04-03T08:32:16.890Z,26.1
2023-04-03T08:33:18.743Z,26.1
2023-04-03T08:34:20.632Z,26.1
2023-04-03T08:35:22.539Z,26.1
2023-04-03T08:36:24.432Z,26.1
2023-04-03T08:37:26.344Z,26.1
2023-04-03T08:38:28.277Z,26.1
2023-04-03T08:39:30.053Z,26.2
2023-04-03T08:40:31.989Z,26.2
2023-04-03T08:41:33.957Z,26.2
2023-04-03T08:42:36.575Z,26.2
2023-04-03T08:43:38.478Z,26.2
2023-04-03T08:44:40.281Z,26.2
2023-04-03T08:45:43.186Z,26.3
2023-04-03T08:46:44.877Z,26.3
2023-04-03T08:47:46.721Z,26.3
2023-04-03T08:48:48.793Z,26.3
2023-04-03T08:49:50.746Z,26.3
2023-04-03T08:50:53.172Z,26.3
2023-04-03T08:51:55.120Z,26.3
2023-04-03T08:52:56.863Z,26.3
2023-04-03T08:53:58.588Z,26.3
2023-04-03T08:55:00.504Z,26.3
2023-04-03T08:56:02.306Z,26.3
2023-04-03T08:57:04.176Z,26.4
2023-04-03T08:58:06.646Z,26.3
2023-04-03T08:59:08.561Z,26.3
2023-04-03T09:00:10.440Z,26.3
2023-04-03T09:01:12.139Z,26.3
2023-04-03T09:02:14.225Z,26.3
2023-04-03T09:03:16.157Z,26.3
2023-04-03T09:04:18.608Z,26.3
2023-04-03T09:05:22.225Z,26.3
2023-04-03T09:06:25.828Z,26.3
2023-04-03T09:07:27.567Z,26.4
2023-04-03T09:08:29.267Z,26.4
2023-04-03T09:09:31.291Z,26.4
2023-04-03T09:10:33.331Z,26.3
2023-04-03T09:11:35.015Z,26.4
2023-04-03T09:12:37.039Z,26.4
2023-04-03T09:13:39.312Z,26.4
2023-04-03T09:14:41.192Z,26.4
2023-04-03T09:15:43.055Z,26.4
2023-04-03T09:16:45.046Z,26.4
2023-04-03T09:17:46.920Z,26.4
2023-04-03T09:18:49.084Z,26.3
2023-04-03T09:19:51.198Z,26.4
2023-04-03T09:20:53.253Z,26.4
2023-04-03T09:21:55.277Z,26.4
2023-04-03T09:22:57.128Z,26.4
2023-04-03T09:23:59.242Z,26.4
2023-04-03T09:25:00.968Z,26.4
2023-04-03T09:26:02.774Z,26.4
2023-04-03T09:27:04.594Z,26.4
2023-04-03T09:28:06.587Z,26.4
2023-04-03T09:29:08.902Z,26.5
2023-04-03T09:30:10.841Z,26.4
2023-04-03T09:31:12.631Z,26.5
2023-04-03T09:32:14.614Z,26.5
2023-04-03T09:33:16.521Z,26.4
2023-04-03T09:34:18.727Z,26.5
2023-04-03T09:35:25.151Z,26.6
2023-04-03T09:36:50.426Z,26.7
2023-04-03T09:37:52.299Z,26.7
2023-04-03T09:38:54.108Z,26.7
2023-04-03T09:39:56.046Z,26.6
2023-04-03T09:40:58.096Z,26.5
2023-04-03T09:41:59.869Z,26.5
2023-04-03T09:43:01.927Z,26.4
2023-04-03T09:44:03.880Z,26.4
2023-04-03T09:45:06.198Z,26.4
2023-04-03T09:46:08.032Z,26.4
2023-04-03T09:47:09.946Z,26.3
2023-04-03T09:48:16.045Z,26.2
2023-04-03T09:49:18.768Z,26.1
2023-04-03T09:50:20.724Z,26.2
2023-04-03T09:51:22.712Z,26.1
2023-04-03T09:52:24.610Z,26.1
2023-04-03T09:53:26.459Z,26.2
2023-04-03T09:54:28.355Z,26.3
2023-04-03T09:55:30.461Z,26.3
2023-04-03T09:56:32.601Z,26.3
2023-04-03T09:57:34.755Z,26.4
2023-04-03T09:58:47.320Z,26.4
2023-04-03T09:59:53.005Z,26.5
2023-04-03T10:00:55.515Z,26.5
2023-04-03T10:01:57.468Z,26.5
2023-04-03T10:02:59.443Z,26.6
2023-04-03T10:04:01.810Z,26.6
2023-04-03T10:06:11.843Z,26.7
2023-04-03T10:07:13.886Z,26.7
2023-04-03T10:08:15.768Z,26.7
2023-04-03T10:09:17.926Z,26.7
2023-04-03T10:10:19.971Z,26.7
2023-04-03T10:11:21.905Z,26.7
2023-04-03T10:12:23.745Z,26.7
2023-04-03T10:13:25.668Z,26.7
2023-04-03T10:14:27.578Z,26.7
2023-04-03T10:15:29.558Z,26.7
2023-04-03T10:16:32.044Z,26.6
2023-04-03T10:17:34.322Z,26.7
2023-04-03T10:18:36.617Z,26.7
2023-04-03T10:19:38.574Z,26.7
2023-04-03T10:20:40.999Z,26.7
2023-04-03T10:21:43.468Z,26.7
2023-04-03T10:22:45.510Z,26.7
2023-04-03T10:23:47.382Z,26.7
2023-04-03T10:24:49.264Z,26.7
2023-04-03T10:25:51.253Z,26.7
2023-04-03T10:26:53.156Z,26.7
2023-04-03T10:27:55.055Z,26.7
2023-04-03T10:28:56.952Z,26.6
2023-04-03T10:29:58.903Z,26.6
2023-04-03T10:31:00.949Z,26.6
2023-04-03T10:32:03.414Z,26.5
2023-04-03T10:33:05.251Z,26.5
2023-04-03T10:34:07.492Z,26.4
2023-04-03T10:35:09.361Z,26.4
2023-04-03T10:36:11.241Z,26.4
2023-04-03T10:37:13.141Z,26.3
2023-04-03T10:38:15.034Z,26.3
2023-04-03T10:39:16.773Z,26.3
2023-04-03T10:40:18.600Z,26.4
2023-04-03T10:41:20.524Z,26.4
2023-04-03T10:42:22.409Z,26.4
2023-04-03T10:43:24.826Z,26.4
2023-04-03T10:44:26.711Z,26.4
2023-04-03T10:45:28.564Z,26.4
2023-04-03T10:46:30.600Z,26.5
2023-04-03T10:47:34.086Z,26.4
2023-04-03T10:48:41.080Z,26.4
2023-04-03T10:49:47.249Z,26.5
2023-04-03T10:51:01.761Z,26.5
2023-04-03T10:52:03.709Z,26.6
2023-04-03T10:53:05.573Z,26.6
2023-04-03T10:54:07.452Z,26.6
2023-04-03T10:55:09.372Z,26.6
2023-04-03T10:56:11.225Z,26.6
2023-04-03T10:57:13.932Z,26.6
2023-04-03T10:58:16.208Z,26.6
2023-04-03T10:59:18.189Z,26.6
2023-04-03T11:00:19.962Z,26.6
2023-04-03T11:01:21.854Z,26.6
2023-04-03T11:02:24.021Z,26.6
2023-04-03T11:03:26.820Z,26.6
2023-04-03T11:04:29.158Z,26.6
2023-04-03T11:05:30.952Z,26.7
2023-04-03T11:06:32.814Z,26.7
2023-04-03T11:07:34.714Z,26.7
2023-04-03T11:08:36.506Z,26.7
2023-04-03T11:09:38.699Z,26.7
2023-04-03T11:10:40.555Z,26.7
2023-04-03T11:11:42.470Z,26.7
2023-04-03T11:12:45.559Z,26.7
2023-04-03T11:13:49.658Z,26.7
2023-04-03T11:14:51.588Z,26.7
2023-04-03T11:15:53.423Z,26.8
2023-04-03T11:16:55.434Z,26.8
2023-04-03T11:17:57.697Z,26.8
2023-04-03T11:19:00.283Z,26.8
2023-04-03T11:20:02.178Z,26.8
2023-04-03T11:21:04.236Z,26.9
2023-04-03T11:22:06.171Z,26.9
2023-04-03T11:23:07.958Z,26.9
2023-04-03T11:24:09.683Z,26.9
2023-04-03T11:25:11.548Z,26.9
2023-04-03T11:26:13.683Z,26.9
2023-04-03T11:27:15.423Z,26.9
2023-04-03T11:28:17.194Z,26.9
2023-04-03T11:29:28.585Z,26.9
2023-04-03T11:30:37.696Z,26.9
2023-04-03T11:31:39.475Z,27
2023-04-03T11:32:41.682Z,27
2023-04-03T11:33:43.562Z,27
2023-04-03T11:34:45.929Z,27
2023-04-03T11:35:47.803Z,27
2023-04-03T11:36:49.811Z,27
2023-04-03T11:37:52.633Z,27
2023-04-03T11:38:54.797Z,27
2023-04-03T11:39:57.613Z,27
2023-04-03T11:40:59.353Z,27
2023-04-03T11:42:10.901Z,27
2023-04-03T11:43:15.191Z,27
2023-04-03T11:44:17.016Z,27
2023-04-03T11:45:18.953Z,26.9
2023-04-03T11:46:20.907Z,27
2023-04-03T11:47:22.998Z,27
2023-04-03T11:48:25.426Z,27
2023-04-03T11:49:27.469Z,27
2023-04-03T11:50:29.771Z,27
2023-04-03T11:51:31.815Z,27
2023-04-03T11:52:33.633Z,27
2023-04-03T11:53:35.505Z,27
2023-04-03T11:54:44.256Z,27
2023-04-03T11:55:47.487Z,27
2023-04-03T11:56:49.219Z,27
2023-04-03T11:57:51.089Z,27
2023-04-03T11:58:53.009Z,27
2023-04-03T11:59:54.923Z,27
2023-04-03T12:00:56.920Z,27
2023-04-03T12:01:59.172Z,27
2023-04-03T12:03:01.552Z,27
2023-04-03T12:04:04.543Z,27
2023-04-03T12:05:06.811Z,27
2023-04-03T12:06:09.221Z,27
2023-04-03T12:07:11.039Z,27
2023-04-03T12:08:12.956Z,27
2023-04-03T12:09:14.795Z,27
2023-04-03T12:10:21.602Z,27
2023-04-03T12:11:34.473Z,27
2023-04-03T12:12:36.409Z,27
2023-04-03T12:13:38.384Z,27
2023-04-03T12:14:40.262Z,27
2023-04-03T12:15:42.092Z,27
2023-04-03T12:16:43.955Z,27
2023-04-03T12:17:46.240Z,26.9
2023-04-03T12:18:48.361Z,26.9
2023-04-03T12:19:50.265Z,26.9
2023-04-03T12:20:52.163Z,26.9
2023-04-03T12:21:54.443Z,26.9
2023-04-03T12:22:56.313Z,26.9
2023-04-03T12:23:58.109Z,26.9
2023-04-03T12:25:00.044Z,27
2023-04-03T12:26:01.934Z,27
2023-04-03T12:27:03.776Z,27
2023-04-03T12:28:05.835Z,27
2023-04-03T12:29:07.754Z,27
2023-04-03T12:30:09.664Z,26.9
2023-04-03T12:31:11.838Z,26.9
2023-04-03T12:32:13.945Z,27
2023-04-03T12:33:15.821Z,27
2023-04-03T12:34:18.159Z,27
2023-04-03T12:35:20.024Z,27
2023-04-03T12:36:22.235Z,26.9
2023-04-03T12:37:24.861Z,27
2023-04-03T12:38:26.697Z,27
2023-04-03T12:39:28.540Z,27
2023-04-03T12:40:30.382Z,26.9
2023-04-03T12:41:32.244Z,27
2023-04-03T12:42:34.094Z,26.9
2023-04-03T12:43:36.124Z,26.9
2023-04-03T12:44:38.028Z,26.9
2023-04-03T12:45:40.513Z,26.9
2023-04-03T12:46:43.099Z,26.8
2023-04-03T12:47:45.332Z,26.8
2023-04-03T12:48:47.644Z,26.8
2023-04-03T12:49:51.443Z,26.8
2023-04-03T12:50:54.696Z,26.8
2023-04-03T12:51:56.593Z,26.8
2023-04-03T12:52:59.088Z,26.8
2023-04-03T12:54:01.096Z,26.8
2023-04-03T12:55:02.984Z,26.8
2023-04-03T12:56:04.895Z,26.8
2023-04-03T12:57:06.849Z,26.8
2023-04-03T12:58:08.805Z,26.8
2023-04-03T12:59:10.618Z,26.8
2023-04-03T13:00:12.516Z,26.8
2023-04-03T13:01:14.442Z,26.8
2023-04-03T13:02:16.629Z,26.8
2023-04-03T13:03:18.786Z,26.8
2023-04-03T13:04:21.053Z,26.8
2023-04-03T13:05:22.941Z,26.7
2023-04-03T13:06:24.791Z,26.7
2023-04-03T13:07:26.605Z,26.7
2023-04-03T13:08:28.641Z,26.8
2023-04-03T13:09:30.498Z,26.8
2023-04-03T13:10:32.347Z,26.8
2023-04-03T13:11:34.138Z,26.8
2023-04-03T13:12:36.038Z,26.7
2023-04-03T13:13:37.894Z,26.7
2023-04-03T13:14:39.776Z,26.7
2023-04-03T13:15:41.690Z,26.7
2023-04-03T13:16:43.594Z,26.7
2023-04-03T13:17:45.425Z,26.7
2023-04-03T13:18:47.544Z,26.7
2023-04-03T13:19:49.724Z,26.7
2023-04-03T13:20:51.755Z,26.7
2023-04-03T13:21:53.629Z,26.6
2023-04-03T13:22:55.652Z,26.6
2023-04-03T13:24:07.594Z,26.5
2023-04-03T13:25:17.642Z,26.5
2023-04-03T13:26:22.336Z,26.5
2023-04-03T13:27:24.271Z,26.5
2023-04-03T13:28:26.084Z,26.5
2023-04-03T13:29:30.801Z,26.5
2023-04-03T13:30:34.127Z,26.5
2023-04-03T13:31:35.996Z,26.5
2023-04-03T13:32:38.160Z,26.5
2023-04-03T13:33:40.397Z,26.4
2023-04-03T13:34:42.427Z,26.4
2023-04-03T13:35:49.097Z,26.4
2023-04-03T13:36:51.424Z,26.4
2023-04-03T13:37:53.329Z,26.5
2023-04-03T13:38:55.176Z,26.5
2023-04-03T13:39:57.362Z,26.5
2023-04-03T13:40:59.304Z,26.5
2023-04-03T13:42:01.314Z,26.5
2023-04-03T13:43:03.184Z,26.5
2023-04-03T13:44:12.416Z,26.5
2023-04-03T13:45:14.764Z,26.5
2023-04-03T13:46:16.554Z,26.5
2023-04-03T13:47:19.084Z,26.5
2023-04-03T13:48:23.522Z,26.5
2023-04-03T13:49:27.605Z,26.5
2023-04-03T13:50:31.389Z,26.4
2023-04-03T13:51:33.261Z,26.5
2023-04-03T13:52:35.288Z,26.4
2023-04-03T13:53:37.148Z,26.4
2023-04-03T13:54:39.010Z,26.4
2023-04-03T13:55:41.227Z,26.4
2023-04-03T13:56:43.416Z,26.4